sensor_id;sensor_type;location;lat;lon;timestamp;P1;durP1;ratioP1;P2;durP2;ratioP2
12511;SDS011;6321;53.798;10.382;2023-03-13T00:00:16;28.37;;;11.17;;
12511;SDS011;6321;53.798;10.382;2023-03-13T00:02:42;31.20;;;12.00;;
12511;SDS011;6321;53.798;10.382;2023-03-13T00:05:11;28.43;;;10.87;;
12511;SDS011;6321;53.798;10.382;2023-03-13T00:07:37;29.53;;;9.97;;
12511;SDS011;6321;53.798;10.382;2023-03-13T00:10:03;31.63;;;10.00;;
12511;SDS011;6321;53.798;10.382;2023-03-13T00:12:29;27.30;;;10.37;;
12511;SDS011;6321;53.798;10.382;2023-03-13T00:14:55;32.53;;;9.60;;
12511;SDS011;6321;53.798;10.382;2023-03-13T00:17:21;28.80;;;9.10;;
12511;SDS011;6321;53.798;10.382;2023-03-13T00:19:47;23.60;;;9.10;;
12511;SDS011;6321;53.798;10.382;2023-03-13T00:22:13;22.50;;;8.63;;
12511;SDS011;6321;53.798;10.382;2023-03-13T00:24:39;26.17;;;9.40;;
12511;SDS011;6321;53.798;10.382;2023-03-13T00:27:05;31.77;;;10.20;;
12511;SDS011;6321;53.798;10.382;2023-03-13T00:29:31;24.87;;;7.87;;
12511;SDS011;6321;53.798;10.382;2023-03-13T00:31:57;23.23;;;8.53;;
12511;SDS011;6321;53.798;10.382;2023-03-13T00:34:23;21.83;;;9.00;;
12511;SDS011;6321;53.798;10.382;2023-03-13T00:36:51;23.87;;;8.37;;
12511;SDS011;6321;53.798;10.382;2023-03-13T00:39:17;27.27;;;10.60;;
12511;SDS011;6321;53.798;10.382;2023-03-13T00:41:43;27.20;;;8.23;;
12511;SDS011;6321;53.798;10.382;2023-03-13T00:44:09;30.17;;;9.07;;
12511;SDS011;6321;53.798;10.382;2023-03-13T00:46:35;31.20;;;8.77;;
12511;SDS011;6321;53.798;10.382;2023-03-13T00:49:01;26.10;;;6.80;;
12511;SDS011;6321;53.798;10.382;2023-03-13T00:51:27;28.07;;;8.40;;
12511;SDS011;6321;53.798;10.382;2023-03-13T00:53:56;24.47;;;7.73;;
12511;SDS011;6321;53.798;10.382;2023-03-13T00:56:25;28.70;;;7.87;;
12511;SDS011;6321;53.798;10.382;2023-03-13T00:58:52;23.03;;;8.40;;
12511;SDS011;6321;53.798;10.382;2023-03-13T01:01:25;24.57;;;7.83;;
12511;SDS011;6321;53.798;10.382;2023-03-13T01:03:53;23.87;;;8.57;;
12511;SDS011;6321;53.798;10.382;2023-03-13T01:06:20;28.37;;;8.60;;
12511;SDS011;6321;53.798;10.382;2023-03-13T01:08:46;30.67;;;8.87;;
12511;SDS011;6321;53.798;10.382;2023-03-13T01:11:14;29.13;;;8.97;;
12511;SDS011;6321;53.798;10.382;2023-03-13T01:13:40;27.13;;;7.63;;
12511;SDS011;6321;53.798;10.382;2023-03-13T01:16:07;29.50;;;8.57;;
12511;SDS011;6321;53.798;10.382;2023-03-13T01:18:34;28.23;;;8.30;;
12511;SDS011;6321;53.798;10.382;2023-03-13T01:21:01;23.93;;;8.53;;
12511;SDS011;6321;53.798;10.382;2023-03-13T01:23:27;28.10;;;9.93;;
12511;SDS011;6321;53.798;10.382;2023-03-13T01:25:54;28.23;;;8.53;;
12511;SDS011;6321;53.798;10.382;2023-03-13T01:28:20;29.47;;;8.83;;
12511;SDS011;6321;53.798;10.382;2023-03-13T01:30:46;29.17;;;9.07;;
12511;SDS011;6321;53.798;10.382;2023-03-13T01:33:12;20.83;;;7.93;;
12511;SDS011;6321;53.798;10.382;2023-03-13T01:35:38;29.60;;;9.20;;
12511;SDS011;6321;53.798;10.382;2023-03-13T01:38:04;26.53;;;8.53;;
12511;SDS011;6321;53.798;10.382;2023-03-13T01:40:30;26.60;;;8.77;;
12511;SDS011;6321;53.798;10.382;2023-03-13T01:42:57;27.30;;;8.63;;
12511;SDS011;6321;53.798;10.382;2023-03-13T01:48:08;28.43;;;8.73;;
12511;SDS011;6321;53.798;10.382;2023-03-13T01:50:34;27.10;;;8.43;;
12511;SDS011;6321;53.798;10.382;2023-03-13T01:52:59;25.70;;;9.13;;
12511;SDS011;6321;53.798;10.382;2023-03-13T01:55:25;29.33;;;8.70;;
12511;SDS011;6321;53.798;10.382;2023-03-13T01:57:52;27.27;;;9.10;;
12511;SDS011;6321;53.798;10.382;2023-03-13T02:00:19;24.20;;;8.83;;
12511;SDS011;6321;53.798;10.382;2023-03-13T02:02:47;29.93;;;9.03;;
12511;SDS011;6321;53.798;10.382;2023-03-13T02:05:15;30.23;;;9.23;;
12511;SDS011;6321;53.798;10.382;2023-03-13T02:07:43;32.47;;;10.50;;
12511;SDS011;6321;53.798;10.382;2023-03-13T02:10:11;33.07;;;9.50;;
12511;SDS011;6321;53.798;10.382;2023-03-13T02:12:39;30.20;;;9.67;;
12511;SDS011;6321;53.798;10.382;2023-03-13T02:15:07;23.53;;;8.50;;
12511;SDS011;6321;53.798;10.382;2023-03-13T02:17:34;30.10;;;9.60;;
12511;SDS011;6321;53.798;10.382;2023-03-13T02:20:00;28.10;;;9.50;;
12511;SDS011;6321;53.798;10.382;2023-03-13T02:28:06;30.50;;;9.63;;
12511;SDS011;6321;53.798;10.382;2023-03-13T02:30:32;29.30;;;9.87;;
12511;SDS011;6321;53.798;10.382;2023-03-13T02:32:59;27.87;;;8.93;;
12511;SDS011;6321;53.798;10.382;2023-03-13T02:35:25;30.47;;;10.60;;
12511;SDS011;6321;53.798;10.382;2023-03-13T02:37:54;27.00;;;8.97;;
12511;SDS011;6321;53.798;10.382;2023-03-13T02:40:21;32.73;;;9.83;;
12511;SDS011;6321;53.798;10.382;2023-03-13T02:42:49;30.73;;;9.63;;
12511;SDS011;6321;53.798;10.382;2023-03-13T02:45:15;34.10;;;9.83;;
12511;SDS011;6321;53.798;10.382;2023-03-13T02:47:42;28.43;;;8.57;;
12511;SDS011;6321;53.798;10.382;2023-03-13T02:50:08;21.37;;;8.20;;
12511;SDS011;6321;53.798;10.382;2023-03-13T02:52:45;32.80;;;9.10;;
12511;SDS011;6321;53.798;10.382;2023-03-13T02:55:18;26.80;;;8.83;;
12511;SDS011;6321;53.798;10.382;2023-03-13T02:57:46;29.07;;;9.13;;
12511;SDS011;6321;53.798;10.382;2023-03-13T03:00:12;32.57;;;9.77;;
12511;SDS011;6321;53.798;10.382;2023-03-13T03:02:40;35.23;;;9.37;;
12511;SDS011;6321;53.798;10.382;2023-03-13T03:05:07;33.33;;;9.30;;
12511;SDS011;6321;53.798;10.382;2023-03-13T03:07:33;39.10;;;9.47;;
12511;SDS011;6321;53.798;10.382;2023-03-13T03:09:59;27.23;;;8.73;;
12511;SDS011;6321;53.798;10.382;2023-03-13T03:12:25;28.97;;;9.17;;
12511;SDS011;6321;53.798;10.382;2023-03-13T03:14:51;26.33;;;8.03;;
12511;SDS011;6321;53.798;10.382;2023-03-13T03:17:17;24.67;;;8.47;;
12511;SDS011;6321;53.798;10.382;2023-03-13T03:19:43;32.27;;;9.70;;
12511;SDS011;6321;53.798;10.382;2023-03-13T03:22:09;34.40;;;10.63;;
12511;SDS011;6321;53.798;10.382;2023-03-13T03:24:34;30.47;;;9.03;;
12511;SDS011;6321;53.798;10.382;2023-03-13T03:27:01;29.87;;;9.17;;
12511;SDS011;6321;53.798;10.382;2023-03-13T03:29:26;29.13;;;9.33;;
12511;SDS011;6321;53.798;10.382;2023-03-13T03:31:52;24.80;;;9.30;;
12511;SDS011;6321;53.798;10.382;2023-03-13T03:34:19;28.23;;;7.97;;
12511;SDS011;6321;53.798;10.382;2023-03-13T03:36:45;24.03;;;7.70;;
12511;SDS011;6321;53.798;10.382;2023-03-13T03:39:11;28.77;;;7.83;;
12511;SDS011;6321;53.798;10.382;2023-03-13T03:41:37;35.70;;;10.03;;
12511;SDS011;6321;53.798;10.382;2023-03-13T03:44:03;21.77;;;7.70;;
12511;SDS011;6321;53.798;10.382;2023-03-13T03:46:29;31.00;;;9.17;;
12511;SDS011;6321;53.798;10.382;2023-03-13T03:48:55;33.97;;;8.80;;
12511;SDS011;6321;53.798;10.382;2023-03-13T03:51:21;34.43;;;8.47;;
12511;SDS011;6321;53.798;10.382;2023-03-13T03:53:47;29.47;;;9.23;;
12511;SDS011;6321;53.798;10.382;2023-03-13T03:56:13;23.83;;;8.40;;
12511;SDS011;6321;53.798;10.382;2023-03-13T03:58:39;30.77;;;8.83;;
12511;SDS011;6321;53.798;10.382;2023-03-13T04:01:05;38.13;;;8.57;;
12511;SDS011;6321;53.798;10.382;2023-03-13T04:03:31;31.17;;;9.40;;
12511;SDS011;6321;53.798;10.382;2023-03-13T04:05:57;26.33;;;8.40;;
12511;SDS011;6321;53.798;10.382;2023-03-13T04:08:23;22.80;;;7.63;;
12511;SDS011;6321;53.798;10.382;2023-03-13T04:10:49;27.40;;;7.87;;
12511;SDS011;6321;53.798;10.382;2023-03-13T04:13:15;19.57;;;6.90;;
12511;SDS011;6321;53.798;10.382;2023-03-13T04:15:41;33.20;;;8.53;;
12511;SDS011;6321;53.798;10.382;2023-03-13T04:18:07;32.03;;;7.90;;
12511;SDS011;6321;53.798;10.382;2023-03-13T04:20:34;24.33;;;7.27;;
12511;SDS011;6321;53.798;10.382;2023-03-13T04:23:00;27.27;;;8.03;;
12511;SDS011;6321;53.798;10.382;2023-03-13T04:25:26;23.97;;;7.53;;
12511;SDS011;6321;53.798;10.382;2023-03-13T04:27:52;28.60;;;9.27;;
12511;SDS011;6321;53.798;10.382;2023-03-13T04:30:18;26.07;;;7.83;;
12511;SDS011;6321;53.798;10.382;2023-03-13T04:32:44;23.93;;;7.93;;
12511;SDS011;6321;53.798;10.382;2023-03-13T04:35:10;21.97;;;7.47;;
12511;SDS011;6321;53.798;10.382;2023-03-13T04:37:36;31.17;;;7.70;;
12511;SDS011;6321;53.798;10.382;2023-03-13T04:40:02;23.67;;;7.80;;
12511;SDS011;6321;53.798;10.382;2023-03-13T04:42:28;30.03;;;8.77;;
12511;SDS011;6321;53.798;10.382;2023-03-13T04:44:54;22.37;;;7.17;;
12511;SDS011;6321;53.798;10.382;2023-03-13T04:47:20;24.70;;;7.97;;
12511;SDS011;6321;53.798;10.382;2023-03-13T04:49:46;25.33;;;7.83;;
12511;SDS011;6321;53.798;10.382;2023-03-13T04:52:12;24.70;;;8.07;;
12511;SDS011;6321;53.798;10.382;2023-03-13T04:54:38;26.67;;;7.50;;
12511;SDS011;6321;53.798;10.382;2023-03-13T04:57:04;25.37;;;7.13;;
12511;SDS011;6321;53.798;10.382;2023-03-13T04:59:30;27.83;;;7.93;;
12511;SDS011;6321;53.798;10.382;2023-03-13T05:01:56;20.07;;;7.17;;
12511;SDS011;6321;53.798;10.382;2023-03-13T05:04:22;31.23;;;7.67;;
12511;SDS011;6321;53.798;10.382;2023-03-13T05:06:47;24.63;;;7.20;;
12511;SDS011;6321;53.798;10.382;2023-03-13T05:09:13;18.27;;;5.70;;
12511;SDS011;6321;53.798;10.382;2023-03-13T05:11:39;19.43;;;6.40;;
12511;SDS011;6321;53.798;10.382;2023-03-13T05:14:06;18.60;;;6.77;;
12511;SDS011;6321;53.798;10.382;2023-03-13T05:16:34;22.80;;;6.37;;
12511;SDS011;6321;53.798;10.382;2023-03-13T05:19:00;24.17;;;6.77;;
12511;SDS011;6321;53.798;10.382;2023-03-13T05:21:26;22.23;;;6.03;;
12511;SDS011;6321;53.798;10.382;2023-03-13T05:23:52;13.83;;;5.17;;
12511;SDS011;6321;53.798;10.382;2023-03-13T05:26:18;25.33;;;5.83;;
12511;SDS011;6321;53.798;10.382;2023-03-13T05:28:44;27.20;;;6.83;;
12511;SDS011;6321;53.798;10.382;2023-03-13T05:31:10;20.90;;;7.20;;
12511;SDS011;6321;53.798;10.382;2023-03-13T05:33:36;23.23;;;6.77;;
12511;SDS011;6321;53.798;10.382;2023-03-13T05:36:02;19.63;;;6.83;;
12511;SDS011;6321;53.798;10.382;2023-03-13T05:38:28;19.93;;;6.50;;
12511;SDS011;6321;53.798;10.382;2023-03-13T05:40:54;19.93;;;6.90;;
12511;SDS011;6321;53.798;10.382;2023-03-13T05:43:19;20.80;;;6.33;;
12511;SDS011;6321;53.798;10.382;2023-03-13T05:45:45;17.07;;;6.70;;
12511;SDS011;6321;53.798;10.382;2023-03-13T05:48:11;27.77;;;6.90;;
12511;SDS011;6321;53.798;10.382;2023-03-13T05:50:37;17.83;;;6.90;;
12511;SDS011;6321;53.798;10.382;2023-03-13T05:53:03;19.43;;;6.63;;
12511;SDS011;6321;53.798;10.382;2023-03-13T05:55:29;14.87;;;5.47;;
12511;SDS011;6321;53.798;10.382;2023-03-13T05:57:55;11.23;;;5.53;;
12511;SDS011;6321;53.798;10.382;2023-03-13T06:00:21;14.77;;;5.10;;
12511;SDS011;6321;53.798;10.382;2023-03-13T06:02:47;20.30;;;5.53;;
12511;SDS011;6321;53.798;10.382;2023-03-13T06:05:13;15.97;;;5.17;;
12511;SDS011;6321;53.798;10.382;2023-03-13T06:07:39;11.27;;;4.73;;
12511;SDS011;6321;53.798;10.382;2023-03-13T06:10:05;12.50;;;4.87;;
12511;SDS011;6321;53.798;10.382;2023-03-13T06:12:31;16.67;;;4.97;;
12511;SDS011;6321;53.798;10.382;2023-03-13T06:14:57;10.60;;;4.03;;
12511;SDS011;6321;53.798;10.382;2023-03-13T06:17:23;11.23;;;4.43;;
12511;SDS011;6321;53.798;10.382;2023-03-13T06:19:49;9.17;;;4.13;;
12511;SDS011;6321;53.798;10.382;2023-03-13T06:22:15;7.37;;;3.67;;
12511;SDS011;6321;53.798;10.382;2023-03-13T06:24:42;9.50;;;4.17;;
12511;SDS011;6321;53.798;10.382;2023-03-13T06:27:13;7.67;;;4.07;;
12511;SDS011;6321;53.798;10.382;2023-03-13T06:29:39;12.17;;;3.70;;
12511;SDS011;6321;53.798;10.382;2023-03-13T06:32:05;6.10;;;3.07;;
12511;SDS011;6321;53.798;10.382;2023-03-13T06:34:31;9.57;;;3.27;;
12511;SDS011;6321;53.798;10.382;2023-03-13T06:36:57;10.93;;;3.37;;
12511;SDS011;6321;53.798;10.382;2023-03-13T06:39:24;7.83;;;3.47;;
12511;SDS011;6321;53.798;10.382;2023-03-13T06:41:50;9.83;;;3.43;;
12511;SDS011;6321;53.798;10.382;2023-03-13T06:44:16;9.50;;;3.20;;
12511;SDS011;6321;53.798;10.382;2023-03-13T06:46:42;8.67;;;3.20;;
12511;SDS011;6321;53.798;10.382;2023-03-13T06:49:08;6.30;;;2.70;;
12511;SDS011;6321;53.798;10.382;2023-03-13T06:51:34;6.87;;;3.33;;
12511;SDS011;6321;53.798;10.382;2023-03-13T06:54:03;8.57;;;2.77;;
12511;SDS011;6321;53.798;10.382;2023-03-13T06:56:28;8.03;;;2.83;;
12511;SDS011;6321;53.798;10.382;2023-03-13T06:58:54;7.20;;;2.80;;
12511;SDS011;6321;53.798;10.382;2023-03-13T07:01:20;4.23;;;2.60;;
12511;SDS011;6321;53.798;10.382;2023-03-13T07:03:47;6.53;;;2.53;;
12511;SDS011;6321;53.798;10.382;2023-03-13T07:06:14;5.73;;;2.23;;
12511;SDS011;6321;53.798;10.382;2023-03-13T07:08:40;4.20;;;2.50;;
12511;SDS011;6321;53.798;10.382;2023-03-13T07:11:08;5.27;;;2.70;;
12511;SDS011;6321;53.798;10.382;2023-03-13T07:13:34;5.13;;;2.17;;
12511;SDS011;6321;53.798;10.382;2023-03-13T07:16:18;5.33;;;2.60;;
12511;SDS011;6321;53.798;10.382;2023-03-13T07:18:44;6.67;;;2.80;;
12511;SDS011;6321;53.798;10.382;2023-03-13T07:21:10;5.57;;;3.60;;
12511;SDS011;6321;53.798;10.382;2023-03-13T07:23:36;6.50;;;2.93;;
12511;SDS011;6321;53.798;10.382;2023-03-13T07:26:04;4.37;;;2.83;;
12511;SDS011;6321;53.798;10.382;2023-03-13T07:28:30;5.40;;;3.17;;
12511;SDS011;6321;53.798;10.382;2023-03-13T07:33:53;7.10;;;3.10;;
12511;SDS011;6321;53.798;10.382;2023-03-13T07:36:23;5.73;;;2.20;;
12511;SDS011;6321;53.798;10.382;2023-03-13T07:38:49;4.77;;;2.83;;
12511;SDS011;6321;53.798;10.382;2023-03-13T07:41:15;3.77;;;2.47;;
12511;SDS011;6321;53.798;10.382;2023-03-13T07:43:41;3.23;;;2.30;;
12511;SDS011;6321;53.798;10.382;2023-03-13T07:46:09;3.67;;;2.47;;
12511;SDS011;6321;53.798;10.382;2023-03-13T07:48:36;3.70;;;2.50;;
12511;SDS011;6321;53.798;10.382;2023-03-13T07:51:03;2.77;;;2.13;;
12511;SDS011;6321;53.798;10.382;2023-03-13T07:53:29;4.37;;;2.70;;
12511;SDS011;6321;53.798;10.382;2023-03-13T07:58:21;7.03;;;2.80;;
12511;SDS011;6321;53.798;10.382;2023-03-13T08:00:48;4.80;;;2.73;;
12511;SDS011;6321;53.798;10.382;2023-03-13T08:03:14;4.53;;;2.77;;
12511;SDS011;6321;53.798;10.382;2023-03-13T08:05:40;5.80;;;2.60;;
12511;SDS011;6321;53.798;10.382;2023-03-13T08:08:05;5.10;;;3.00;;
12511;SDS011;6321;53.798;10.382;2023-03-13T08:10:31;5.17;;;2.57;;
12511;SDS011;6321;53.798;10.382;2023-03-13T08:12:57;4.27;;;3.00;;
12511;SDS011;6321;53.798;10.382;2023-03-13T08:15:23;5.67;;;3.07;;
12511;SDS011;6321;53.798;10.382;2023-03-13T08:17:53;4.80;;;3.20;;
12511;SDS011;6321;53.798;10.382;2023-03-13T08:20:19;5.07;;;3.73;;
12511;SDS011;6321;53.798;10.382;2023-03-13T08:22:45;6.63;;;3.83;;
12511;SDS011;6321;53.798;10.382;2023-03-13T08:25:11;5.20;;;3.70;;
12511;SDS011;6321;53.798;10.382;2023-03-13T08:27:37;8.07;;;4.10;;
12511;SDS011;6321;53.798;10.382;2023-03-13T08:30:03;5.97;;;4.20;;
12511;SDS011;6321;53.798;10.382;2023-03-13T08:32:33;5.60;;;4.90;;
12511;SDS011;6321;53.798;10.382;2023-03-13T08:34:59;6.57;;;5.27;;
12511;SDS011;6321;53.798;10.382;2023-03-13T08:37:25;7.23;;;5.47;;
12511;SDS011;6321;53.798;10.382;2023-03-13T08:39:51;6.90;;;6.17;;
12511;SDS011;6321;53.798;10.382;2023-03-13T08:42:20;6.30;;;5.70;;
12511;SDS011;6321;53.798;10.382;2023-03-13T08:44:46;6.80;;;6.20;;
12511;SDS011;6321;53.798;10.382;2023-03-13T08:47:11;6.50;;;5.90;;
12511;SDS011;6321;53.798;10.382;2023-03-13T08:49:37;7.47;;;6.60;;
12511;SDS011;6321;53.798;10.382;2023-03-13T08:52:04;6.87;;;6.17;;
12511;SDS011;6321;53.798;10.382;2023-03-13T08:54:30;10.37;;;6.53;;
12511;SDS011;6321;53.798;10.382;2023-03-13T08:56:56;7.17;;;6.47;;
12511;SDS011;6321;53.798;10.382;2023-03-13T08:59:23;5.80;;;4.50;;
12511;SDS011;6321;53.798;10.382;2023-03-13T09:01:49;5.73;;;5.10;;
12511;SDS011;6321;53.798;10.382;2023-03-13T09:04:15;6.17;;;5.57;;
12511;SDS011;6321;53.798;10.382;2023-03-13T09:06:41;5.80;;;5.30;;
12511;SDS011;6321;53.798;10.382;2023-03-13T09:09:08;5.40;;;4.90;;
12511;SDS011;6321;53.798;10.382;2023-03-13T09:11:35;5.27;;;4.77;;
12511;SDS011;6321;53.798;10.382;2023-03-13T09:14:01;6.30;;;4.90;;
12511;SDS011;6321;53.798;10.382;2023-03-13T09:16:27;4.33;;;3.93;;
12511;SDS011;6321;53.798;10.382;2023-03-13T09:18:54;4.73;;;4.23;;
12511;SDS011;6321;53.798;10.382;2023-03-13T09:21:21;6.20;;;5.20;;
12511;SDS011;6321;53.798;10.382;2023-03-13T09:23:47;6.57;;;5.50;;
12511;SDS011;6321;53.798;10.382;2023-03-13T09:26:13;6.03;;;4.77;;
12511;SDS011;6321;53.798;10.382;2023-03-13T09:28:39;4.10;;;3.70;;
12511;SDS011;6321;53.798;10.382;2023-03-13T09:31:14;6.53;;;5.37;;
12511;SDS011;6321;53.798;10.382;2023-03-13T09:33:40;4.97;;;4.27;;
12511;SDS011;6321;53.798;10.382;2023-03-13T09:36:06;6.57;;;5.87;;
12511;SDS011;6321;53.798;10.382;2023-03-13T09:38:32;6.77;;;5.70;;
12511;SDS011;6321;53.798;10.382;2023-03-13T09:41:03;7.37;;;5.53;;
12511;SDS011;6321;53.798;10.382;2023-03-13T09:43:38;8.17;;;5.23;;
12511;SDS011;6321;53.798;10.382;2023-03-13T09:46:07;8.17;;;6.97;;
12511;SDS011;6321;53.798;10.382;2023-03-13T09:48:50;6.40;;;5.67;;
12511;SDS011;6321;53.798;10.382;2023-03-13T09:51:33;6.83;;;6.17;;
12511;SDS011;6321;53.798;10.382;2023-03-13T09:56:30;6.33;;;5.53;;
12511;SDS011;6321;53.798;10.382;2023-03-13T09:59:00;6.60;;;5.90;;
12511;SDS011;6321;53.798;10.382;2023-03-13T10:01:29;7.97;;;5.33;;
12511;SDS011;6321;53.798;10.382;2023-03-13T10:03:57;6.63;;;5.00;;
12511;SDS011;6321;53.798;10.382;2023-03-13T10:06:25;5.77;;;4.47;;
12511;SDS011;6321;53.798;10.382;2023-03-13T10:08:53;4.27;;;3.83;;
12511;SDS011;6321;53.798;10.382;2023-03-13T10:16:26;5.27;;;4.77;;
12511;SDS011;6321;53.798;10.382;2023-03-13T10:18:57;6.23;;;5.00;;
12511;SDS011;6321;53.798;10.382;2023-03-13T10:21:31;5.87;;;4.37;;
12511;SDS011;6321;53.798;10.382;2023-03-13T10:24:02;5.20;;;4.70;;
12511;SDS011;6321;53.798;10.382;2023-03-13T10:26:34;6.90;;;5.40;;
12511;SDS011;6321;53.798;10.382;2023-03-13T10:29:01;5.77;;;4.03;;
12511;SDS011;6321;53.798;10.382;2023-03-13T10:31:35;4.97;;;3.43;;
12511;SDS011;6321;53.798;10.382;2023-03-13T10:34:08;6.77;;;5.33;;
12511;SDS011;6321;53.798;10.382;2023-03-13T10:36:38;5.40;;;4.10;;
12511;SDS011;6321;53.798;10.382;2023-03-13T10:39:06;3.77;;;3.43;;
12511;SDS011;6321;53.798;10.382;2023-03-13T10:41:34;7.13;;;4.40;;
12511;SDS011;6321;53.798;10.382;2023-03-13T10:44:04;6.33;;;5.73;;
12511;SDS011;6321;53.798;10.382;2023-03-13T10:46:33;7.53;;;4.80;;
12511;SDS011;6321;53.798;10.382;2023-03-13T10:49:00;4.10;;;3.77;;
12511;SDS011;6321;53.798;10.382;2023-03-13T10:51:37;4.87;;;4.20;;
12511;SDS011;6321;53.798;10.382;2023-03-13T10:54:12;5.23;;;4.53;;
12511;SDS011;6321;53.798;10.382;2023-03-13T10:56:38;4.23;;;3.83;;
12511;SDS011;6321;53.798;10.382;2023-03-13T10:59:04;5.67;;;3.87;;
12511;SDS011;6321;53.798;10.382;2023-03-13T11:01:45;4.00;;;3.60;;
12511;SDS011;6321;53.798;10.382;2023-03-13T11:04:27;4.73;;;4.20;;
12511;SDS011;6321;53.798;10.382;2023-03-13T11:06:57;4.03;;;3.57;;
12511;SDS011;6321;53.798;10.382;2023-03-13T11:09:23;5.37;;;4.83;;
12511;SDS011;6321;53.798;10.382;2023-03-13T11:11:52;5.10;;;3.90;;
12511;SDS011;6321;53.798;10.382;2023-03-13T11:14:20;5.03;;;3.80;;
12511;SDS011;6321;53.798;10.382;2023-03-13T11:16:50;7.00;;;3.63;;
12511;SDS011;6321;53.798;10.382;2023-03-13T11:27:01;4.13;;;3.43;;
12511;SDS011;6321;53.798;10.382;2023-03-13T11:29:31;5.20;;;3.57;;
12511;SDS011;6321;53.798;10.382;2023-03-13T11:32:01;4.67;;;3.53;;
12511;SDS011;6321;53.798;10.382;2023-03-13T11:34:39;8.53;;;3.67;;
12511;SDS011;6321;53.798;10.382;2023-03-13T11:37:13;4.30;;;3.23;;
12511;SDS011;6321;53.798;10.382;2023-03-13T11:42:24;3.50;;;2.73;;
12511;SDS011;6321;53.798;10.382;2023-03-13T11:47:49;3.63;;;2.77;;
12511;SDS011;6321;53.798;10.382;2023-03-13T11:50:22;3.90;;;3.00;;
12511;SDS011;6321;53.798;10.382;2023-03-13T11:53:36;3.70;;;2.47;;
12511;SDS011;6321;53.798;10.382;2023-03-13T12:03:39;5.20;;;2.73;;
12511;SDS011;6321;53.798;10.382;2023-03-13T12:08:59;2.60;;;2.10;;
12511;SDS011;6321;53.798;10.382;2023-03-13T12:11:30;2.67;;;1.60;;
12511;SDS011;6321;53.798;10.382;2023-03-13T12:13:59;4.17;;;1.80;;
12511;SDS011;6321;53.798;10.382;2023-03-13T12:16:31;2.80;;;1.90;;
12511;SDS011;6321;53.798;10.382;2023-03-13T12:19:01;5.67;;;2.10;;
12511;SDS011;6321;53.798;10.382;2023-03-13T12:21:29;2.37;;;1.60;;
12511;SDS011;6321;53.798;10.382;2023-03-13T12:29:04;4.20;;;2.37;;
12511;SDS011;6321;53.798;10.382;2023-03-13T12:31:41;3.80;;;2.10;;
12511;SDS011;6321;53.798;10.382;2023-03-13T12:36:38;4.87;;;2.07;;
12511;SDS011;6321;53.798;10.382;2023-03-13T12:41:42;3.40;;;2.07;;
12511;SDS011;6321;53.798;10.382;2023-03-13T12:44:10;2.70;;;1.97;;
12511;SDS011;6321;53.798;10.382;2023-03-13T13:00:41;2.57;;;2.03;;
12511;SDS011;6321;53.798;10.382;2023-03-13T13:03:18;3.13;;;1.90;;
12511;SDS011;6321;53.798;10.382;2023-03-13T13:05:59;4.70;;;2.03;;
12511;SDS011;6321;53.798;10.382;2023-03-13T13:08:26;4.17;;;1.73;;
12511;SDS011;6321;53.798;10.382;2023-03-13T13:11:30;2.90;;;2.27;;
12511;SDS011;6321;53.798;10.382;2023-03-13T13:13:41;4.37;;;1.97;;
12511;SDS011;6321;53.798;10.382;2023-03-13T13:16:10;2.83;;;1.90;;
12511;SDS011;6321;53.798;10.382;2023-03-13T13:18:37;3.30;;;1.80;;
12511;SDS011;6321;53.798;10.382;2023-03-13T13:23:35;6.40;;;2.00;;
12511;SDS011;6321;53.798;10.382;2023-03-13T13:28:47;2.43;;;1.70;;
12511;SDS011;6321;53.798;10.382;2023-03-13T13:33:58;2.93;;;1.80;;
12511;SDS011;6321;53.798;10.382;2023-03-13T13:36:27;3.50;;;2.00;;
12511;SDS011;6321;53.798;10.382;2023-03-13T13:38:53;3.97;;;2.17;;
12511;SDS011;6321;53.798;10.382;2023-03-13T13:41:24;4.27;;;2.20;;
12511;SDS011;6321;53.798;10.382;2023-03-13T13:44:13;4.77;;;2.17;;
12511;SDS011;6321;53.798;10.382;2023-03-13T13:46:42;4.47;;;1.80;;
12511;SDS011;6321;53.798;10.382;2023-03-13T13:49:18;4.83;;;1.90;;
12511;SDS011;6321;53.798;10.382;2023-03-13T13:54:31;4.30;;;1.80;;
12511;SDS011;6321;53.798;10.382;2023-03-13T13:56:58;3.97;;;2.00;;
12511;SDS011;6321;53.798;10.382;2023-03-13T13:59:29;7.80;;;2.10;;
12511;SDS011;6321;53.798;10.382;2023-03-13T14:04:35;3.30;;;1.83;;
12511;SDS011;6321;53.798;10.382;2023-03-13T14:07:02;3.50;;;1.77;;
12511;SDS011;6321;53.798;10.382;2023-03-13T14:15:06;4.20;;;1.67;;
12511;SDS011;6321;53.798;10.382;2023-03-13T14:17:39;2.70;;;1.70;;
12511;SDS011;6321;53.798;10.382;2023-03-13T14:20:14;3.63;;;1.70;;
12511;SDS011;6321;53.798;10.382;2023-03-13T14:22:44;4.00;;;1.67;;
12511;SDS011;6321;53.798;10.382;2023-03-13T14:25:10;6.53;;;2.20;;
12511;SDS011;6321;53.798;10.382;2023-03-13T14:27:41;2.77;;;1.67;;
12511;SDS011;6321;53.798;10.382;2023-03-13T14:30:08;4.10;;;1.80;;
12511;SDS011;6321;53.798;10.382;2023-03-13T14:32:34;1.97;;;1.40;;
12511;SDS011;6321;53.798;10.382;2023-03-13T14:35:00;4.03;;;1.67;;
12511;SDS011;6321;53.798;10.382;2023-03-13T14:37:36;3.70;;;2.20;;
12511;SDS011;6321;53.798;10.382;2023-03-13T14:43:03;3.80;;;2.20;;
12511;SDS011;6321;53.798;10.382;2023-03-13T14:45:41;4.57;;;1.90;;
12511;SDS011;6321;53.798;10.382;2023-03-13T14:50:53;2.73;;;1.73;;
12511;SDS011;6321;53.798;10.382;2023-03-13T14:53:21;3.23;;;2.00;;
12511;SDS011;6321;53.798;10.382;2023-03-13T14:55:47;2.60;;;1.67;;
12511;SDS011;6321;53.798;10.382;2023-03-13T14:58:24;6.20;;;1.90;;
12511;SDS011;6321;53.798;10.382;2023-03-13T15:00:51;4.60;;;1.83;;
12511;SDS011;6321;53.798;10.382;2023-03-13T15:03:19;5.47;;;2.07;;
12511;SDS011;6321;53.798;10.382;2023-03-13T15:05:49;4.47;;;2.20;;
12511;SDS011;6321;53.798;10.382;2023-03-13T15:08:20;5.50;;;1.90;;
12511;SDS011;6321;53.798;10.382;2023-03-13T15:10:46;3.73;;;1.87;;
12511;SDS011;6321;53.798;10.382;2023-03-13T15:15:42;2.07;;;1.77;;
12511;SDS011;6321;53.798;10.382;2023-03-13T15:18:18;5.93;;;2.30;;
12511;SDS011;6321;53.798;10.382;2023-03-13T15:20:48;3.97;;;1.93;;
12511;SDS011;6321;53.798;10.382;2023-03-13T15:23:14;2.07;;;1.43;;
12511;SDS011;6321;53.798;10.382;2023-03-13T15:25:40;2.43;;;2.00;;
12511;SDS011;6321;53.798;10.382;2023-03-13T15:28:22;2.03;;;1.90;;
12511;SDS011;6321;53.798;10.382;2023-03-13T15:30:49;2.63;;;1.93;;
12511;SDS011;6321;53.798;10.382;2023-03-13T15:33:16;2.77;;;2.00;;
12511;SDS011;6321;53.798;10.382;2023-03-13T15:35:43;2.33;;;1.80;;
12511;SDS011;6321;53.798;10.382;2023-03-13T15:38:13;2.97;;;1.80;;
12511;SDS011;6321;53.798;10.382;2023-03-13T15:40:40;3.53;;;2.10;;
12511;SDS011;6321;53.798;10.382;2023-03-13T15:43:06;2.87;;;1.70;;
12511;SDS011;6321;53.798;10.382;2023-03-13T15:45:32;4.93;;;1.90;;
12511;SDS011;6321;53.798;10.382;2023-03-13T15:47:59;2.77;;;1.67;;
12511;SDS011;6321;53.798;10.382;2023-03-13T15:50:25;1.93;;;1.70;;
12511;SDS011;6321;53.798;10.382;2023-03-13T15:52:55;3.13;;;2.03;;
12511;SDS011;6321;53.798;10.382;2023-03-13T15:55:21;4.63;;;1.90;;
12511;SDS011;6321;53.798;10.382;2023-03-13T15:57:48;2.83;;;1.60;;
12511;SDS011;6321;53.798;10.382;2023-03-13T16:00:21;3.17;;;1.90;;
12511;SDS011;6321;53.798;10.382;2023-03-13T16:02:48;2.23;;;2.03;;
12511;SDS011;6321;53.798;10.382;2023-03-13T16:05:14;3.70;;;2.10;;
12511;SDS011;6321;53.798;10.382;2023-03-13T16:07:40;2.13;;;1.63;;
12511;SDS011;6321;53.798;10.382;2023-03-13T16:10:11;3.93;;;1.90;;
12511;SDS011;6321;53.798;10.382;2023-03-13T16:12:39;3.43;;;2.07;;
12511;SDS011;6321;53.798;10.382;2023-03-13T16:15:05;4.90;;;2.10;;
12511;SDS011;6321;53.798;10.382;2023-03-13T16:17:31;3.37;;;2.00;;
12511;SDS011;6321;53.798;10.382;2023-03-13T16:19:57;2.73;;;2.00;;